Time;durP1;ratioP1;P1;durP2;ratioP2;P2;SDS_P1;SDS_P2;PMS_P1;PMS_P2;Temp;Humidity;BMP_temperature;BMP_pressure;BME280_temperature;BME280_humidity;BME280_pressure;Samples;Min_cycle;Max_cycle;Signal;HPM_P1;HPM_P2
2022/06/29 00:00:34;;;;;;;36.80;26.48;;;26.10;1.00;;;;;;5156109;27;20022;-59
2022/06/29 00:03:00;;;;;;;37.33;27.98;;;25.90;1.00;;;;;;5155317;27;20018;-59
2022/06/29 00:05:26;;;;;;;28.58;21.00;;;26.00;1.00;;;;;;5154044;27;20023;-60
2022/06/29 00:07:57;;;;;;;107.38;89.70;;;25.90;1.00;;;;;;5141547;27;20035;-60
2022/06/29 00:10:23;;;;;;;33.97;25.02;;;26.00;1.00;;;;;;5155897;27;20119;-60
2022/06/29 00:12:50;;;;;;;56.78;49.75;;;25.90;1.00;;;;;;5154676;27;20045;-60
2022/06/29 00:15:17;;;;;;;49.78;40.88;;;25.90;1.00;;;;;;5155903;27;20046;-60
2022/06/29 00:17:43;;;;;;;27.13;18.85;;;25.80;1.00;;;;;;5148059;27;20114;-60
2022/06/29 00:20:12;;;;;;;35.80;31.98;;;25.90;1.00;;;;;;5155475;27;20053;-60
2022/06/29 00:22:40;;;;;;;22.48;14.60;;;26.10;1.00;;;;;;5155581;27;20348;-60
2022/06/29 00:25:06;;;;;;;17.27;14.48;;;26.10;1.00;;;;;;5144110;27;20065;-59
2022/06/29 00:27:32;;;;;;;12.85;8.70;;;26.00;1.00;;;;;;5155662;27;20488;-60
2022/06/29 00:29:58;;;;;;;21.25;13.95;;;25.60;1.00;;;;;;5142468;27;20175;-60
2022/06/29 00:32:24;;;;;;;15.90;7.32;;;25.70;1.00;;;;;;5155912;27;20356;-59
2022/06/29 00:34:50;;;;;;;19.58;14.18;;;25.40;1.00;;;;;;5154640;27;20314;-60
2022/06/29 00:37:16;;;;;;;16.80;11.95;;;25.40;1.00;;;;;;5155222;27;20022;-60
2022/06/29 00:39:42;;;;;;;14.85;10.68;;;25.20;1.00;;;;;;5140740;27;20031;-60
2022/06/29 00:42:08;;;;;;;18.52;12.88;;;25.20;1.00;;;;;;5155548;27;20026;-60
2022/06/29 00:44:33;;;;;;;23.33;17.42;;;25.00;1.00;;;;;;5154486;27;20026;-60
2022/06/29 00:47:02;;;;;;;22.13;18.05;;;25.20;1.00;;;;;;5155600;27;20033;-59
2022/06/29 00:49:29;;;;;;;14.05;9.85;;;25.20;1.00;;;;;;5154092;27;20034;-59
2022/06/29 00:52:12;;;;;;;13.32;7.55;;;25.00;1.00;;;;;;5155432;27;20027;-58
2022/06/29 00:54:45;;;;;;;10.53;7.33;;;24.80;1.00;;;;;;5152969;27;20379;-58
2022/06/29 00:57:24;;;;;;;19.02;14.40;;;25.00;1.00;;;;;;5154268;27;20015;-59
2022/06/29 00:59:55;;;;;;;33.67;27.55;;;25.00;1.00;;;;;;5151997;27;20045;-59
2022/06/29 01:02:24;;;;;;;21.70;14.95;;;24.90;1.00;;;;;;5155000;27;20029;-59
2022/06/29 01:04:50;;;;;;;29.55;23.70;;;24.90;1.00;;;;;;5139249;27;20120;-59
2022/06/29 01:07:21;;;;;;;11.25;6.88;;;24.50;1.00;;;;;;5145637;27;20110;-59
2022/06/29 01:09:47;;;;;;;4.53;3.40;;;24.50;1.00;;;;;;5137989;27;20167;-59
2022/06/29 01:12:13;;;;;;;6.32;2.03;;;24.60;1.00;;;;;;5152815;27;20463;-59
2022/06/29 01:14:44;;;;;;;4.72;2.10;;;24.80;1.00;;;;;;5147216;27;20404;-59
2022/06/29 01:17:11;;;;;;;5.95;2.10;;;24.90;1.00;;;;;;5154166;27;20064;-59
2022/06/29 01:19:37;;;;;;;6.03;2.08;;;24.80;1.00;;;;;;5152808;27;20045;-59
2022/06/29 01:22:13;;;;;;;2.80;1.45;;;24.80;1.00;;;;;;5145549;27;20038;-59
2022/06/29 01:24:40;;;;;;;4.93;1.95;;;24.80;1.00;;;;;;5152051;27;20025;-59
2022/06/29 01:27:06;;;;;;;5.07;1.80;;;24.60;1.00;;;;;;5153928;27;20034;-59
2022/06/29 01:29:32;;;;;;;5.65;2.47;;;24.60;1.00;;;;;;5152662;27;20034;-59
2022/06/29 01:31:58;;;;;;;3.80;1.88;;;24.90;1.00;;;;;;5153829;27;20029;-60
2022/06/29 01:34:25;;;;;;;2.83;1.63;;;24.60;1.00;;;;;;5151972;27;20031;-60
2022/06/29 01:36:51;;;;;;;3.63;1.70;;;24.80;1.00;;;;;;5153602;27;20030;-59
2022/06/29 01:39:17;;;;;;;6.43;1.63;;;24.50;1.00;;;;;;5142746;27;20027;-60
2022/06/29 01:41:43;;;;;;;3.28;2.13;;;24.40;1.00;;;;;;5153631;27;20074;-59
2022/06/29 01:44:09;;;;;;;4.07;1.60;;;24.60;1.00;;;;;;5144845;27;20031;-59
2022/06/29 01:46:34;;;;;;;4.63;1.83;;;24.60;1.00;;;;;;5151500;27;20033;-60
2022/06/29 01:49:00;;;;;;;3.88;2.10;;;24.70;1.00;;;;;;5149500;27;20034;-59
2022/06/29 01:51:26;;;;;;;3.63;1.77;;;24.50;1.00;;;;;;5145220;27;20039;-59
2022/06/29 01:53:51;;;;;;;3.97;2.00;;;24.60;1.00;;;;;;5151802;27;20472;-59
2022/06/29 01:56:17;;;;;;;3.13;1.83;;;24.60;1.00;;;;;;5153772;27;20019;-60
2022/06/29 01:58:44;;;;;;;5.53;2.30;;;24.40;1.00;;;;;;5153079;27;20071;-59
2022/06/29 02:01:09;;;;;;;4.45;1.75;;;24.20;1.00;;;;;;5152817;27;20102;-59
2022/06/29 02:03:35;;;;;;;5.40;2.17;;;24.20;1.00;;;;;;5149268;27;20106;-60
2022/06/29 02:06:02;;;;;;;5.50;2.17;;;24.20;1.00;;;;;;5152302;27;20029;-60
2022/06/29 02:08:28;;;;;;;3.28;2.03;;;24.40;1.00;;;;;;5148372;27;20038;-59
2022/06/29 02:10:53;;;;;;;6.07;2.63;;;24.20;1.00;;;;;;5143019;27;20089;-59
2022/06/29 02:13:19;;;;;;;3.85;1.90;;;24.30;1.00;;;;;;5147400;27;20079;-59
2022/06/29 02:15:45;;;;;;;4.80;1.98;;;23.90;1.00;;;;;;5146671;27;20493;-59
2022/06/29 02:18:10;;;;;;;3.60;2.08;;;24.10;1.00;;;;;;5153624;27;20026;-59
2022/06/29 02:20:36;;;;;;;6.43;2.38;;;24.30;1.00;;;;;;5148309;27;20018;-59
2022/06/29 02:23:01;;;;;;;3.13;2.38;;;24.20;1.00;;;;;;5153342;27;20475;-59
2022/06/29 02:25:27;;;;;;;4.25;1.83;;;24.20;1.00;;;;;;5145947;27;20476;-59
2022/06/29 02:27:53;;;;;;;5.00;2.15;;;24.20;1.00;;;;;;5149808;27;20044;-59
2022/06/29 02:30:18;;;;;;;4.28;2.05;;;24.50;1.00;;;;;;5143611;27;20050;-59
2022/06/29 02:35:30;;;;;;;6.20;2.30;;;24.40;1.00;;;;;;5150677;27;20072;-60
2022/06/29 02:37:56;;;;;;;3.47;2.15;;;24.60;1.00;;;;;;5149516;27;20012;-59
2022/06/29 02:40:21;;;;;;;4.78;2.53;;;24.40;1.00;;;;;;5148793;27;20078;-59
2022/06/29 02:42:47;;;;;;;4.72;2.50;;;24.60;1.00;;;;;;5153109;27;20099;-59
2022/06/29 02:45:13;;;;;;;5.40;1.90;;;24.60;1.00;;;;;;5145198;27;20385;-60
2022/06/29 02:47:38;;;;;;;6.13;2.47;;;24.40;1.00;;;;;;5153056;27;20031;-59
2022/06/29 02:50:05;;;;;;;3.53;1.95;;;24.60;1.00;;;;;;5152091;27;20463;-60
2022/06/29 02:52:30;;;;;;;3.22;2.22;;;24.50;1.00;;;;;;5152893;27;20071;-59
2022/06/29 02:54:56;;;;;;;4.88;2.55;;;24.50;1.00;;;;;;5152012;27;20034;-59
2022/06/29 02:57:21;;;;;;;7.90;2.40;;;24.60;1.00;;;;;;5152860;27;20376;-59
2022/06/29 02:59:47;;;;;;;3.97;2.38;;;24.70;1.00;;;;;;5145505;27;20031;-59
2022/06/29 03:02:13;;;;;;;5.43;2.22;;;24.60;1.00;;;;;;5152940;27;20095;-59
2022/06/29 03:04:38;;;;;;;4.70;2.80;;;24.40;1.00;;;;;;5151655;27;20027;-59
2022/06/29 03:07:04;;;;;;;4.93;2.60;;;24.70;1.00;;;;;;5152634;27;20015;-59
2022/06/29 03:09:30;;;;;;;6.25;2.80;;;24.60;1.00;;;;;;5151783;27;20090;-58
2022/06/29 03:11:56;;;;;;;4.35;2.20;;;24.60;1.00;;;;;;5152550;27;20122;-59
2022/06/29 03:14:21;;;;;;;6.43;2.83;;;24.80;1.00;;;;;;5145955;27;20027;-59
2022/06/29 03:16:47;;;;;;;6.57;3.13;;;24.40;1.00;;;;;;5146419;27;20473;-59
2022/06/29 03:19:13;;;;;;;3.55;2.67;;;24.50;1.00;;;;;;5151125;27;20030;-59
2022/06/29 03:21:38;;;;;;;5.05;2.88;;;24.70;1.00;;;;;;5132689;27;20072;-59
2022/06/29 03:24:04;;;;;;;4.47;2.90;;;24.60;1.00;;;;;;5138531;27;20033;-60
2022/06/29 03:26:33;;;;;;;4.53;2.53;;;24.40;1.00;;;;;;5136422;27;20022;-59
2022/06/29 03:28:58;;;;;;;6.53;2.92;;;24.50;1.00;;;;;;5151670;27;20046;-59
2022/06/29 03:31:24;;;;;;;3.53;2.60;;;24.60;1.00;;;;;;5136488;27;20365;-60
2022/06/29 03:33:50;;;;;;;5.18;2.70;;;24.60;1.00;;;;;;5155116;27;20027;-59
2022/06/29 03:36:16;;;;;;;7.30;2.70;;;24.40;1.00;;;;;;5156445;27;20015;-59
2022/06/29 03:38:41;;;;;;;6.55;2.78;;;24.50;1.00;;;;;;5155982;27;20057;-59
2022/06/29 03:41:07;;;;;;;5.85;3.00;;;24.60;1.00;;;;;;5156276;27;20019;-59
2022/06/29 03:43:33;;;;;;;5.32;2.58;;;24.60;1.00;;;;;;5156552;27;20072;-60
2022/06/29 03:45:58;;;;;;;6.03;2.90;;;24.60;1.00;;;;;;5149246;27;20035;-59
2022/06/29 03:48:24;;;;;;;5.30;3.28;;;24.50;1.00;;;;;;5156371;27;20479;-59
2022/06/29 03:50:50;;;;;;;5.38;2.70;;;24.40;1.00;;;;;;5155094;27;20130;-59
2022/06/29 03:53:16;;;;;;;7.63;4.30;;;24.50;1.00;;;;;;5156292;27;20038;-60
2022/06/29 03:55:42;;;;;;;4.85;2.53;;;24.30;1.00;;;;;;5155233;27;20035;-59
2022/06/29 03:58:08;;;;;;;3.42;2.53;;;24.40;1.00;;;;;;5135645;27;20023;-60
2022/06/29 04:00:34;;;;;;;8.13;2.70;;;24.40;1.00;;;;;;5150716;27;20049;-60
2022/06/29 04:03:00;;;;;;;4.05;2.63;;;24.40;1.00;;;;;;5155938;27;20018;-59
2022/06/29 04:05:25;;;;;;;7.32;3.38;;;24.40;1.00;;;;;;5154385;27;20091;-59
2022/06/29 04:07:51;;;;;;;6.78;2.85;;;24.50;1.00;;;;;;5155795;27;20054;-59
2022/06/29 04:10:17;;;;;;;4.57;2.70;;;24.40;1.00;;;;;;5154672;27;20068;-59
2022/06/29 04:12:42;;;;;;;5.80;3.00;;;24.30;1.00;;;;;;5141857;27;20031;-58
2022/06/29 04:15:08;;;;;;;3.75;3.13;;;24.10;1.00;;;;;;5145107;27;20027;-58
2022/06/29 04:17:34;;;;;;;5.60;3.00;;;24.10;1.00;;;;;;5155756;27;20015;-59
2022/06/29 04:20:01;;;;;;;5.63;2.95;;;24.20;1.00;;;;;;5154584;27;20115;-59
2022/06/29 04:22:27;;;;;;;5.57;2.67;;;24.30;1.00;;;;;;5155764;27;20040;-59
2022/06/29 04:24:52;;;;;;;6.50;2.90;;;24.30;1.00;;;;;;5146614;27;20035;-59
2022/06/29 04:27:18;;;;;;;5.70;3.35;;;24.10;1.00;;;;;;5155735;27;20086;-58
2022/06/29 04:29:44;;;;;;;6.43;3.67;;;24.00;1.00;;;;;;5154379;27;20034;-59
2022/06/29 04:32:10;;;;;;;6.00;3.35;;;24.20;1.00;;;;;;5155407;27;20022;-59
2022/06/29 04:34:36;;;;;;;6.65;3.35;;;24.40;1.00;;;;;;5148850;27;20031;-59
2022/06/29 04:37:02;;;;;;;6.40;3.30;;;24.40;1.00;;;;;;5147649;27;20018;-59
2022/06/29 04:39:28;;;;;;;6.93;3.33;;;24.30;1.00;;;;;;5154275;27;20464;-59
2022/06/29 04:41:54;;;;;;;8.05;3.78;;;24.30;1.00;;;;;;5155468;27;20029;-59
2022/06/29 04:44:20;;;;;;;6.25;3.50;;;24.30;1.00;;;;;;5152618;27;20019;-59
2022/06/29 04:46:46;;;;;;;8.82;3.33;;;24.30;1.00;;;;;;5155570;27;20366;-59
2022/06/29 04:49:11;;;;;;;6.63;3.45;;;24.30;1.00;;;;;;5154514;27;20464;-59
2022/06/29 04:51:37;;;;;;;6.03;3.38;;;24.20;1.00;;;;;;5155142;27;20332;-59
2022/06/29 04:54:04;;;;;;;6.97;3.28;;;24.10;1.00;;;;;;5154205;27;20023;-59
2022/06/29 04:56:32;;;;;;;8.43;3.13;;;24.10;1.00;;;;;;5154786;27;20027;-59
2022/06/29 04:59:00;;;;;;;5.65;3.00;;;24.40;1.00;;;;;;5155195;27;20015;-59
2022/06/29 05:01:27;;;;;;;9.77;3.67;;;24.20;1.00;;;;;;5154268;27;20075;-59
2022/06/29 05:03:54;;;;;;;7.03;4.00;;;24.20;1.00;;;;;;5155131;27;20026;-59
2022/06/29 05:06:21;;;;;;;9.50;3.17;;;24.20;1.00;;;;;;5154028;27;20030;-60
2022/06/29 05:08:51;;;;;;;5.65;3.10;;;23.90;1.00;;;;;;5154838;27;20114;-59
2022/06/29 05:11:18;;;;;;;3.92;2.60;;;24.20;1.00;;;;;;5147407;27;20073;-59
2022/06/29 05:13:45;;;;;;;4.65;3.30;;;24.20;1.00;;;;;;5155148;27;20372;-59
2022/06/29 05:16:11;;;;;;;7.05;3.20;;;24.40;1.00;;;;;;5153750;27;20034;-59
2022/06/29 05:18:39;;;;;;;7.78;3.35;;;24.10;1.00;;;;;;5133703;27;20039;-59
2022/06/29 05:21:06;;;;;;;6.05;3.28;;;23.90;1.00;;;;;;5149349;27;20476;-59
2022/06/29 05:23:32;;;;;;;4.78;2.50;;;24.10;1.00;;;;;;5154485;27;20079;-60
2022/06/29 05:25:58;;;;;;;5.72;2.83;;;24.00;1.00;;;;;;5153480;27;20071;-59
2022/06/29 05:28:24;;;;;;;7.45;3.08;;;24.20;1.00;;;;;;5146531;27;20099;-60
2022/06/29 05:30:51;;;;;;;7.55;2.78;;;24.20;1.00;;;;;;5145696;27;20026;-60
2022/06/29 05:33:17;;;;;;;6.55;3.22;;;24.40;1.00;;;;;;5152472;27;20003;-60
2022/06/29 05:35:43;;;;;;;8.23;3.03;;;24.20;1.00;;;;;;5142586;27;20104;-60
2022/06/29 05:38:08;;;;;;;10.07;3.85;;;24.40;1.00;;;;;;5142504;27;20091;-59
2022/06/29 05:40:34;;;;;;;5.53;2.60;;;24.20;1.00;;;;;;5148071;27;20022;-59
2022/06/29 05:43:00;;;;;;;6.70;2.53;;;24.10;1.00;;;;;;5148296;27;20079;-59
2022/06/29 05:45:26;;;;;;;8.18;3.00;;;24.10;1.00;;;;;;5148108;27;20079;-59
2022/06/29 05:47:53;;;;;;;5.95;2.97;;;24.00;1.00;;;;;;5152584;27;20054;-59
2022/06/29 05:50:20;;;;;;;7.32;3.28;;;24.20;1.00;;;;;;5145489;27;20048;-59
2022/06/29 05:52:46;;;;;;;7.15;3.50;;;24.10;1.00;;;;;;5151860;27;20067;-59
2022/06/29 05:55:12;;;;;;;8.13;3.15;;;24.20;1.00;;;;;;5150608;27;20057;-58
2022/06/29 05:57:37;;;;;;;7.45;3.35;;;24.30;1.00;;;;;;5153643;27;20120;-59
2022/06/29 06:00:05;;;;;;;8.68;3.88;;;24.30;1.00;;;;;;5141878;27;20128;-58
2022/06/29 06:02:30;;;;;;;5.65;3.22;;;24.20;1.00;;;;;;5139901;27;20310;-59
2022/06/29 06:04:56;;;;;;;5.63;3.92;;;24.30;1.00;;;;;;5153073;27;20023;-58
2022/06/29 06:07:22;;;;;;;7.38;3.55;;;24.30;1.00;;;;;;5153473;27;20015;-59
2022/06/29 06:09:47;;;;;;;8.25;3.78;;;24.40;1.00;;;;;;5150308;27;20218;-58
2022/06/29 06:12:13;;;;;;;5.40;4.45;;;24.50;1.00;;;;;;5153422;27;20153;-58
2022/06/29 06:14:38;;;;;;;6.07;4.43;;;24.60;1.00;;;;;;5152417;27;20385;-59
2022/06/29 06:17:04;;;;;;;6.97;4.45;;;24.40;1.00;;;;;;5153499;27;20432;-59
2022/06/29 06:19:30;;;;;;;12.20;6.00;;;24.70;1.00;;;;;;5152715;27;20026;-58
2022/06/29 06:21:55;;;;;;;9.75;5.10;;;24.60;1.00;;;;;;5153091;27;20518;-58
2022/06/29 06:24:21;;;;;;;10.07;4.65;;;24.50;1.00;;;;;;5132235;27;20475;-59
2022/06/29 06:26:47;;;;;;;10.85;5.20;;;24.50;1.00;;;;;;5142842;27;20068;-58
2022/06/29 06:29:12;;;;;;;5.78;5.18;;;24.80;1.00;;;;;;5151272;27;20039;-58
2022/06/29 06:31:38;;;;;;;10.75;5.10;;;24.60;1.00;;;;;;5149668;27;20143;-58
2022/06/29 06:34:04;;;;;;;10.85;4.97;;;24.60;1.00;;;;;;5153118;27;20037;-59
2022/06/29 06:36:30;;;;;;;10.70;5.45;;;24.70;1.00;;;;;;5152062;27;20026;-58
2022/06/29 06:38:55;;;;;;;8.48;4.90;;;24.70;1.00;;;;;;5153149;27;20112;-59
2022/06/29 06:41:21;;;;;;;8.57;4.68;;;24.60;1.00;;;;;;5143278;27;20456;-59
2022/06/29 06:43:51;;;;;;;8.82;4.90;;;24.60;1.00;;;;;;5142663;27;20018;-58
2022/06/29 06:46:17;;;;;;;8.10;4.97;;;24.60;1.00;;;;;;5152038;27;20387;-57
2022/06/29 06:48:43;;;;;;;8.73;4.65;;;24.60;1.00;;;;;;5142751;27;20450;-58
2022/06/29 06:51:10;;;;;;;7.55;4.70;;;24.90;1.00;;;;;;5146406;27;20050;-63
2022/06/29 06:53:36;;;;;;;9.82;6.05;;;24.70;1.00;;;;;;5151578;27;20086;-62
2022/06/29 06:56:02;;;;;;;10.75;5.65;;;24.80;1.00;;;;;;5140377;27;20082;-61
2022/06/29 06:58:27;;;;;;;9.43;6.00;;;24.90;1.00;;;;;;5150472;27;20018;-62
2022/06/29 07:00:53;;;;;;;8.75;6.53;;;24.80;1.00;;;;;;5151867;27;20208;-61
2022/06/29 07:03:18;;;;;;;10.93;5.60;;;24.80;1.00;;;;;;5152845;27;20054;-62
2022/06/29 07:05:44;;;;;;;11.52;4.88;;;24.80;1.00;;;;;;5142720;27;20023;-60
2022/06/29 07:08:10;;;;;;;8.95;5.70;;;25.00;1.00;;;;;;5147987;27;20014;-62
2022/06/29 07:10:35;;;;;;;8.30;5.05;;;24.90;1.00;;;;;;5150646;27;20471;-61
2022/06/29 07:13:01;;;;;;;12.70;4.85;;;25.00;1.00;;;;;;5155664;27;20476;-61
2022/06/29 07:15:27;;;;;;;9.80;4.18;;;25.10;1.00;;;;;;5149595;27;20035;-61
2022/06/29 07:17:52;;;;;;;8.20;4.45;;;25.00;1.00;;;;;;5145345;27;20029;-59
2022/06/29 07:20:18;;;;;;;9.07;4.32;;;25.00;1.00;;;;;;5140746;27;20023;-62
2022/06/29 07:22:44;;;;;;;11.65;5.05;;;25.10;1.00;;;;;;5152350;27;20041;-59
2022/06/29 07:25:09;;;;;;;9.93;4.07;;;25.20;1.00;;;;;;5146159;27;20395;-65
2022/06/29 07:27:35;;;;;;;8.10;3.15;;;25.10;1.00;;;;;;5153273;27;20023;-60
2022/06/29 07:30:01;;;;;;;9.18;3.65;;;25.30;1.00;;;;;;5153011;27;20043;-70
2022/06/29 07:32:26;;;;;;;3.95;2.97;;;25.20;1.00;;;;;;5154435;27;20030;-69
2022/06/29 07:34:52;;;;;;;9.50;3.50;;;25.30;1.00;;;;;;5150420;27;20030;-69
2022/06/29 07:40:40;;;;;;;9.77;3.03;;;25.20;1.00;;;;;;5145994;27;20041;-67
2022/06/29 07:43:05;;;;;;;6.03;3.40;;;25.30;1.00;;;;;;5136918;27;20106;-67
2022/06/29 07:45:31;;;;;;;4.93;3.33;;;25.40;1.00;;;;;;5133904;27;20110;-68
2022/06/29 07:47:57;;;;;;;5.80;2.97;;;25.30;1.00;;;;;;5146021;27;20030;-68
2022/06/29 07:50:22;;;;;;;5.97;3.13;;;25.60;1.00;;;;;;5148282;27;20035;-66
2022/06/29 07:52:48;;;;;;;6.20;3.65;;;25.40;1.00;;;;;;5155973;27;20026;-70
2022/06/29 07:55:14;;;;;;;6.68;3.38;;;25.50;1.00;;;;;;5149941;27;20390;-67
2022/06/29 07:57:39;;;;;;;11.90;4.70;;;25.60;1.00;;;;;;5148901;27;20033;-61
2022/06/29 08:00:06;;;;;;;10.55;3.42;;;25.60;1.00;;;;;;5143225;27;20084;-52
2022/06/29 08:02:32;;;;;;;6.88;3.70;;;25.70;1.00;;;;;;5145842;27;20023;-63
2022/06/29 08:04:59;;;;;;;5.70;3.45;;;25.60;1.00;;;;;;5155875;27;20049;-61
2022/06/29 08:07:25;;;;;;;10.13;3.88;;;25.70;1.00;;;;;;5145144;27;20039;-62
2022/06/29 08:09:53;;;;;;;9.30;3.63;;;25.70;1.00;;;;;;5147224;27;20183;-63
2022/06/29 08:12:19;;;;;;;6.93;3.55;;;25.90;1.00;;;;;;5152913;27;20034;-68
2022/06/29 08:14:44;;;;;;;5.63;3.28;;;25.80;1.00;;;;;;5143071;27;20023;-66
2022/06/29 08:17:10;;;;;;;7.82;2.55;;;25.90;1.00;;;;;;5151751;27;20029;-69
2022/06/29 08:19:35;;;;;;;5.53;2.85;;;26.20;1.00;;;;;;5154265;27;20026;-66
2022/06/29 08:22:01;;;;;;;7.38;3.45;;;26.10;1.00;;;;;;5149893;27;20030;-59
2022/06/29 08:24:28;;;;;;;6.53;3.28;;;26.10;1.00;;;;;;5154631;27;20019;-60
2022/06/29 08:26:53;;;;;;;5.88;3.08;;;26.00;1.00;;;;;;5153418;27;20022;-59
2022/06/29 08:29:20;;;;;;;8.40;3.33;;;25.90;1.00;;;;;;5154582;27;20106;-59
2022/06/29 08:31:46;;;;;;;6.50;2.65;;;26.10;1.00;;;;;;5151986;27;20044;-59
2022/06/29 08:34:13;;;;;;;6.53;3.15;;;26.20;1.00;;;;;;5134407;27;20019;-59
2022/06/29 08:36:39;;;;;;;5.85;3.10;;;26.20;1.00;;;;;;5143281;27;20026;-60
2022/06/29 08:39:05;;;;;;;8.48;3.15;;;26.20;1.00;;;;;;5153088;27;20027;-59
2022/06/29 08:41:32;;;;;;;6.63;3.30;;;26.30;1.00;;;;;;5144640;27;20083;-60
2022/06/29 08:44:03;;;;;;;5.95;3.10;;;26.20;1.00;;;;;;5164562;27;20097;-59
2022/06/29 08:46:28;;;;;;;7.00;2.40;;;26.20;1.00;;;;;;5153453;27;20477;-59
2022/06/29 08:48:54;;;;;;;5.53;2.80;;;26.30;1.00;;;;;;5154157;27;20057;-60
2022/06/29 08:51:22;;;;;;;8.90;3.40;;;26.30;1.00;;;;;;5151664;27;20027;-59
2022/06/29 08:53:49;;;;;;;10.70;3.35;;;26.40;1.00;;;;;;5140922;27;20026;-60
2022/06/29 08:56:17;;;;;;;5.22;2.58;;;26.40;1.00;;;;;;5153275;27;20103;-60
2022/06/29 08:58:45;;;;;;;6.78;3.50;;;26.50;1.00;;;;;;5154087;27;20019;-59
2022/06/29 09:01:12;;;;;;;10.57;3.20;;;26.50;1.00;;;;;;5149555;27;20496;-59
2022/06/29 09:03:37;;;;;;;10.23;2.90;;;26.60;1.00;;;;;;5149170;27;20034;-60
2022/06/29 09:06:03;;;;;;;7.60;3.83;;;26.60;1.00;;;;;;5144444;27;20149;-59
2022/06/29 09:08:31;;;;;;;5.22;3.00;;;26.60;1.00;;;;;;5145014;27;20019;-58
2022/06/29 09:10:56;;;;;;;6.30;3.25;;;26.70;1.00;;;;;;5062992;27;2222514;-59
2022/06/29 09:13:23;;;;;;;5.22;2.80;;;26.70;1.00;;;;;;5146573;27;20031;-59
2022/06/29 09:15:57;;;;;;;5.65;2.67;;;27.00;1.00;;;;;;5139451;27;20030;-59
2022/06/29 09:18:31;;;;;;;6.15;2.75;;;27.00;1.00;;;;;;5147000;27;20043;-59
2022/06/29 09:21:02;;;;;;;5.63;2.85;;;27.10;1.00;;;;;;5133777;27;20027;-59
2022/06/29 09:23:29;;;;;;;6.93;3.28;;;27.00;1.00;;;;;;5143468;27;20027;-57
2022/06/29 09:25:56;;;;;;;6.93;3.70;;;26.90;1.00;;;;;;5140596;27;20396;-54
2022/06/29 09:28:29;;;;;;;7.03;2.80;;;27.20;1.00;;;;;;5140177;27;20417;-58
2022/06/29 09:30:56;;;;;;;;;;;27.00;1.00;;;;;;5145970;27;20509;-56
2022/06/29 09:33:27;;;;;;;7.93;3.63;;;27.10;1.00;;;;;;5145814;27;19907;-60
2022/06/29 09:36:14;;;;;;;6.80;2.75;;;27.30;1.00;;;;;;5150359;27;20046;-61
2022/06/29 09:38:41;;;;;;;5.28;2.75;;;27.50;1.00;;;;;;5144528;27;20067;-60
2022/06/29 09:41:09;;;;;;;8.25;2.97;;;27.50;1.00;;;;;;5146723;27;20058;-63
2022/06/29 09:43:40;;;;;;;7.15;3.38;;;27.50;1.00;;;;;;5145920;27;20033;-58
2022/06/29 09:46:08;;;;;;;6.97;3.10;;;27.60;1.00;;;;;;5143430;27;20025;-60
2022/06/29 09:48:36;;;;;;;12.77;3.13;;;27.70;1.00;;;;;;5142487;27;20079;-60
2022/06/29 09:51:30;;;;;;;6.90;3.05;;;27.60;1.00;;;;;;5151533;27;20038;-60
2022/06/29 09:53:53;;;;;;;6.47;3.38;;;27.70;1.00;;;;;;5143526;27;20023;-60
2022/06/29 09:56:21;;;;;;;10.10;3.50;;;27.60;1.00;;;;;;5147274;27;20175;-59
2022/06/29 09:58:48;;;;;;;7.75;3.15;;;27.70;1.00;;;;;;5153151;27;20025;-61
2022/06/29 10:03:59;;;;;;;7.32;2.80;;;27.80;1.00;;;;;;5139019;27;20369;-57
2022/06/29 10:06:25;;;;;;;11.02;3.55;;;28.10;1.00;;;;;;5152149;27;20133;-51
2022/06/29 10:08:52;;;;;;;10.77;3.25;;;28.00;1.00;;;;;;5141642;27;20019;-54
2022/06/29 10:14:47;;;;;;;;;;;28.10;1.00;;;;;;5149127;27;20115;-52
2022/06/29 10:17:38;;;;;;;7.35;3.50;;;28.10;1.00;;;;;;5145903;27;19911;-55
2022/06/29 10:20:11;;;;;;;8.60;4.63;;;28.20;1.00;;;;;;5134335;27;20059;-59
2022/06/29 10:22:39;;;;;;;;;;;28.20;1.00;;;;;;5144600;27;20025;-57
2022/06/29 10:25:09;;;;;;;6.85;2.70;;;28.20;1.00;;;;;;5147159;27;20090;-58
2022/06/29 10:27:35;;;;;;;5.72;2.80;;;28.30;1.00;;;;;;5134587;27;20376;-59
2022/06/29 10:30:23;;;;;;;11.27;3.22;;;28.40;1.00;;;;;;5151963;27;20027;-58
2022/06/29 10:32:50;;;;;;;8.15;3.33;;;28.40;1.00;;;;;;5147682;27;20027;-58
2022/06/29 10:35:16;;;;;;;6.20;3.17;;;28.60;1.00;;;;;;5144598;27;20128;-58
2022/06/29 10:37:52;;;;;;;7.28;3.47;;;28.80;1.00;;;;;;5150237;27;20105;-59
2022/06/29 10:40:20;;;;;;;9.40;3.08;;;28.60;1.00;;;;;;5146763;27;20352;-58
2022/06/29 10:45:36;;;;;;;9.27;3.92;;;28.80;1.00;;;;;;5147984;27;20047;-57
2022/06/29 10:48:06;;;;;;;8.95;3.55;;;28.70;1.00;;;;;;5146157;27;20034;-59
2022/06/29 10:50:32;;;;;;;6.13;3.40;;;28.80;1.00;;;;;;5145473;27;20114;-55
2022/06/29 10:53:05;;;;;;;8.55;3.10;;;29.00;1.00;;;;;;5149612;27;20455;-57
2022/06/29 10:55:33;;;;;;;8.57;4.35;;;28.90;1.00;;;;;;5153007;27;20121;-59
2022/06/29 10:58:00;;;;;;;9.10;3.70;;;29.20;1.00;;;;;;5147211;27;20372;-56
2022/06/29 11:00:31;;;;;;;6.38;3.33;;;29.10;1.00;;;;;;5153124;27;20109;-62
2022/06/29 11:02:57;;;;;;;11.13;4.85;;;29.30;1.00;;;;;;5151554;27;20356;-60
2022/06/29 11:05:23;;;;;;;6.15;4.07;;;29.30;1.00;;;;;;5153108;27;20037;-63
2022/06/29 11:13:26;;;;;;;7.07;3.38;;;29.50;1.00;;;;;;5147898;27;20065;-60
2022/06/29 11:15:54;;;;;;;6.53;3.70;;;29.60;1.00;;;;;;5139246;27;20075;-61
2022/06/29 11:18:23;;;;;;;6.82;3.67;;;29.80;1.00;;;;;;5151421;27;20373;-61
2022/06/29 11:20:51;;;;;;;8.02;4.78;;;30.00;1.00;;;;;;5135850;27;20020;-58
2022/06/29 11:23:19;;;;;;;11.15;4.43;;;30.20;1.00;;;;;;5146742;27;20318;-57
2022/06/29 11:25:49;;;;;;;7.15;3.92;;;32.20;1.00;;;;;;5148111;27;20038;-59
2022/06/29 11:28:20;;;;;;;8.20;4.75;;;33.50;1.00;;;;;;5146041;27;20113;-58
2022/06/29 11:30:59;;;;;;;8.27;4.25;;;33.70;1.00;;;;;;5140070;27;20051;-57
2022/06/29 11:33:28;;;;;;;7.90;4.03;;;34.20;1.00;;;;;;5143557;27;20550;-59
2022/06/29 11:35:54;;;;;;;7.10;3.53;;;34.80;1.00;;;;;;5143335;27;20387;-59
2022/06/29 11:38:19;;;;;;;8.70;4.32;;;35.00;1.00;;;;;;5150601;27;20011;-59
2022/06/29 11:40:49;;;;;;;11.02;4.82;;;34.80;1.00;;;;;;5137234;27;20084;-59
2022/06/29 11:43:16;;;;;;;9.90;4.50;;;33.90;1.00;;;;;;5150872;27;20011;-58
2022/06/29 11:45:53;;;;;;;7.10;4.10;;;33.40;1.00;;;;;;5138524;27;20103;-58
2022/06/29 11:48:25;;;;;;;7.78;4.15;;;33.50;1.00;;;;;;5144309;27;20131;-58
2022/06/29 11:50:53;;;;;;;6.88;4.35;;;34.20;1.00;;;;;;5142668;27;20058;-58
2022/06/29 11:53:40;;;;;;;11.23;4.07;;;34.60;1.00;;;;;;5152277;27;20027;-58
2022/06/29 11:56:27;;;;;;;8.73;3.97;;;35.30;1.00;;;;;;5138292;27;20092;-58
2022/06/29 11:58:56;;;;;;;6.18;3.83;;;35.30;1.00;;;;;;5154059;27;20440;-59
2022/06/29 12:01:24;;;;;;;8.38;3.65;;;35.80;1.00;;;;;;5149781;27;20087;-59
2022/06/29 12:03:51;;;;;;;7.80;4.00;;;35.90;1.00;;;;;;5139198;27;20031;-59
2022/06/29 12:06:24;;;;;;;9.05;4.18;;;35.20;1.00;;;;;;5154701;27;20030;-59
2022/06/29 12:08:51;;;;;;;7.32;3.40;;;34.80;1.00;;;;;;5147584;27;20463;-62
2022/06/29 12:11:17;;;;;;;7.75;3.78;;;33.70;1.00;;;;;;5123971;27;20097;-57
2022/06/29 12:13:43;;;;;;;10.07;4.03;;;33.40;1.00;;;;;;5110462;27;20019;-55
2022/06/29 12:16:11;;;;;;;9.15;3.95;;;32.80;1.00;;;;;;5114155;28;20027;-59
2022/06/29 12:18:37;;;;;;;7.68;3.45;;;32.50;1.00;;;;;;5113561;28;20024;-59
2022/06/29 12:21:03;;;;;;;8.32;3.65;;;32.30;1.00;;;;;;5104371;28;20122;-56
2022/06/29 12:23:29;;;;;;;7.57;3.20;;;32.20;1.00;;;;;;5110020;28;20031;-54
2022/06/29 12:25:55;;;;;;;5.97;3.50;;;32.10;1.00;;;;;;5101951;28;20055;-55
2022/06/29 12:28:21;;;;;;;7.82;3.20;;;31.90;1.00;;;;;;5100303;28;20035;-54
2022/06/29 12:30:47;;;;;;;6.53;3.60;;;32.00;1.00;;;;;;5111488;28;20047;-55
2022/06/29 12:33:13;;;;;;;8.02;3.53;;;31.80;1.00;;;;;;5113993;28;20026;-54
2022/06/29 12:35:39;;;;;;;7.85;3.38;;;31.80;1.00;;;;;;5100737;28;21051;-52
2022/06/29 12:38:05;;;;;;;6.38;2.90;;;31.70;1.00;;;;;;5112349;27;20293;-53
2022/06/29 12:40:31;;;;;;;7.78;3.10;;;31.80;1.00;;;;;;5099549;28;20358;-56
2022/06/29 12:42:57;;;;;;;6.38;2.75;;;31.80;1.00;;;;;;5106769;28;20030;-58
2022/06/29 12:45:24;;;;;;;6.00;3.42;;;31.70;1.00;;;;;;5117113;27;20036;-60
2022/06/29 12:47:50;;;;;;;6.13;3.50;;;31.60;1.00;;;;;;5120516;27;20039;-61
2022/06/29 12:50:17;;;;;;;7.95;2.88;;;31.60;1.00;;;;;;5101913;28;20096;-60
2022/06/29 12:52:46;;;;;;;5.18;3.17;;;31.70;1.00;;;;;;5104709;28;20051;-62
2022/06/29 12:55:16;;;;;;;4.97;2.58;;;31.80;1.00;;;;;;5101245;28;20129;-52
2022/06/29 12:57:43;;;;;;;7.35;3.00;;;31.90;1.00;;;;;;5107598;28;20069;-59
2022/06/29 13:00:11;;;;;;;5.18;2.78;;;31.80;1.00;;;;;;5111724;27;21502;-60
2022/06/29 13:02:37;;;;;;;5.95;2.50;;;32.00;1.00;;;;;;5110923;28;20028;-60
2022/06/29 13:05:03;;;;;;;5.13;2.28;;;32.00;1.00;;;;;;5107025;28;20031;-62
2022/06/29 13:07:30;;;;;;;4.22;2.90;;;32.00;1.00;;;;;;5107295;28;20046;-63
2022/06/29 13:10:00;;;;;;;6.72;2.83;;;32.00;1.00;;;;;;5107210;27;20503;-62
2022/06/29 13:12:26;;;;;;;8.07;3.33;;;32.10;1.00;;;;;;5137471;27;20047;-55
2022/06/29 13:14:52;;;;;;;8.45;2.80;;;31.90;1.00;;;;;;5149269;27;20436;-57